createdAt,value
2022-08-30T00:01:32.615Z,24.69
2022-08-30T00:04:01.476Z,24.76
2022-08-30T00:06:31.016Z,24.72
2022-08-30T00:08:59.785Z,24.74
2022-08-30T00:11:28.227Z,24.76
2022-08-30T00:13:56.521Z,24.66
2022-08-30T00:16:24.695Z,24.70
2022-08-30T00:18:52.534Z,24.74
2022-08-30T00:21:19.891Z,24.75
2022-08-30T00:23:47.208Z,24.72
2022-08-30T00:26:14.813Z,24.69
2022-08-30T00:28:42.263Z,24.65
2022-08-30T00:31:10.515Z,24.66
2022-08-30T00:33:42.762Z,24.65
2022-08-30T00:36:10.155Z,24.67
2022-08-30T00:38:37.488Z,24.60
2022-08-30T00:41:05.203Z,24.63
2022-08-30T00:43:34.838Z,24.67
2022-08-30T00:46:08.246Z,24.65
2022-08-30T00:48:39.050Z,24.67
2022-08-30T00:51:10.051Z,24.63
2022-08-30T00:53:39.680Z,24.61
2022-08-30T00:56:07.317Z,24.63
2022-08-30T00:58:37.783Z,24.61
2022-08-30T01:01:06.636Z,24.69
2022-08-30T01:03:34.671Z,24.68
2022-08-30T01:06:03.173Z,24.67
2022-08-30T01:08:30.801Z,24.67
2022-08-30T01:10:58.485Z,24.67
2022-08-30T01:13:27.275Z,24.68
2022-08-30T01:15:55.865Z,24.71
2022-08-30T01:18:23.996Z,24.69
2022-08-30T01:21:03.583Z,24.67
2022-08-30T01:23:32.452Z,24.76
2022-08-30T01:26:00.495Z,24.67
2022-08-30T01:28:29.194Z,24.62
2022-08-30T01:30:56.914Z,24.63
2022-08-30T01:33:24.811Z,24.57
2022-08-30T01:35:56.329Z,24.51
2022-08-30T01:38:27.905Z,24.52
2022-08-30T01:41:08.548Z,24.45
2022-08-30T01:43:36.786Z,24.46
2022-08-30T01:46:05.272Z,24.39
2022-08-30T01:48:34.138Z,24.34
2022-08-30T01:51:03.108Z,24.30
2022-08-30T01:53:30.628Z,24.29
2022-08-30T01:55:58.260Z,24.23
2022-08-30T01:58:25.866Z,24.20
2022-08-30T02:00:53.313Z,24.16
2022-08-30T02:03:21.079Z,24.10
2022-08-30T02:05:49.123Z,24.11
2022-08-30T02:08:16.573Z,24.04
2022-08-30T02:10:44.612Z,24.03
2022-08-30T02:13:12.237Z,24.07
2022-08-30T02:15:41.630Z,24.02
2022-08-30T02:18:10.691Z,24.08
2022-08-30T02:20:39.851Z,23.99
2022-08-30T02:23:07.200Z,23.95
2022-08-30T02:25:34.889Z,23.96
2022-08-30T02:28:02.572Z,23.88
2022-08-30T02:30:29.948Z,23.82
2022-08-30T02:32:57.577Z,23.83
2022-08-30T02:35:25.500Z,23.79
2022-08-30T02:37:52.983Z,23.81
2022-08-30T02:40:22.138Z,23.82
2022-08-30T02:42:49.817Z,23.77
2022-08-30T02:45:17.199Z,23.77
2022-08-30T02:47:47.208Z,23.76
2022-08-30T02:50:15.319Z,23.64
2022-08-30T02:52:42.718Z,23.63
2022-08-30T02:55:12.592Z,23.54
2022-08-30T02:57:40.206Z,23.55
2022-08-30T03:00:13.932Z,23.53
2022-08-30T03:02:41.880Z,23.65
2022-08-30T03:05:12.924Z,23.43
2022-08-30T03:07:41.585Z,23.51
2022-08-30T03:10:10.881Z,23.50
2022-08-30T03:12:38.303Z,23.49
2022-08-30T03:15:06.832Z,23.55
2022-08-30T03:17:34.539Z,23.53
2022-08-30T03:20:02.242Z,23.52
2022-08-30T03:22:29.911Z,23.47
2022-08-30T03:25:01.608Z,23.44
2022-08-30T03:27:29.561Z,23.37
2022-08-30T03:29:57.196Z,23.38
2022-08-30T03:32:24.604Z,23.34
2022-08-30T03:34:51.932Z,23.34
2022-08-30T03:37:23.252Z,23.26
2022-08-30T03:39:53.075Z,23.20
2022-08-30T03:42:20.714Z,23.18
2022-08-30T03:44:50.556Z,23.27
2022-08-30T03:47:17.929Z,23.23
2022-08-30T03:49:45.612Z,23.19
2022-08-30T03:52:12.945Z,23.19
2022-08-30T03:54:40.424Z,23.17
2022-08-30T03:57:08.035Z,23.11
2022-08-30T03:59:40.692Z,23.15
2022-08-30T04:02:08.335Z,23.16
2022-08-30T04:04:35.975Z,23.11
2022-08-30T04:07:03.649Z,23.08
2022-08-30T04:09:31.421Z,23.09
2022-08-30T04:12:00.171Z,23.03
2022-08-30T04:14:27.508Z,23.06
2022-08-30T04:16:55.173Z,23.09
2022-08-30T04:19:22.803Z,23.00
2022-08-30T04:21:50.230Z,23.02
2022-08-30T04:24:17.810Z,22.90
2022-08-30T04:26:45.442Z,22.95
2022-08-30T04:29:16.450Z,23.03
2022-08-30T04:31:44.769Z,23.02
2022-08-30T04:34:13.587Z,23.08
2022-08-30T04:36:41.165Z,23.05
2022-08-30T04:39:08.776Z,23.08
2022-08-30T04:41:37.761Z,23.02
2022-08-30T04:44:05.124Z,23.06
2022-08-30T04:46:34.688Z,23.04
2022-08-30T04:49:02.731Z,23.09
2022-08-30T04:51:30.163Z,23.19
2022-08-30T04:53:57.507Z,23.24
2022-08-30T04:56:25.315Z,23.29
2022-08-30T04:58:55.004Z,23.34
2022-08-30T05:01:26.112Z,23.39
2022-08-30T05:03:55.209Z,23.49
2022-08-30T05:06:23.959Z,23.49
2022-08-30T05:08:52.791Z,23.58
2022-08-30T05:11:21.049Z,23.60
2022-08-30T05:13:49.735Z,23.62
2022-08-30T05:16:20.232Z,23.72
2022-08-30T05:18:49.320Z,23.67
2022-08-30T05:21:19.878Z,23.76
2022-08-30T05:23:47.910Z,23.76
2022-08-30T05:26:18.370Z,23.82
2022-08-30T05:28:46.096Z,23.89
2022-08-30T05:31:16.502Z,23.92
2022-08-30T05:33:45.067Z,23.94
2022-08-30T05:36:14.036Z,24.04
2022-08-30T05:38:41.502Z,24.11
2022-08-30T05:41:10.917Z,24.15
2022-08-30T05:43:39.072Z,24.23
2022-08-30T05:46:12.646Z,24.30
2022-08-30T05:48:40.762Z,24.39
2022-08-30T05:51:09.467Z,24.45
2022-08-30T05:53:37.420Z,24.50
2022-08-30T05:56:08.221Z,24.60
2022-08-30T05:58:36.156Z,24.64
2022-08-30T06:01:04.717Z,24.76
2022-08-30T06:03:32.939Z,24.79
2022-08-30T06:06:00.936Z,24.77
2022-08-30T06:08:28.280Z,24.87
2022-08-30T06:10:55.893Z,25.02
2022-08-30T06:13:23.493Z,25.04
2022-08-30T06:15:52.571Z,25.36
2022-08-30T06:18:23.520Z,25.54
2022-08-30T06:20:56.153Z,25.69
2022-08-30T06:23:23.857Z,25.79
2022-08-30T06:25:51.174Z,25.93
2022-08-30T06:28:18.582Z,26.07
2022-08-30T06:30:46.348Z,26.11
2022-08-30T06:33:13.699Z,26.26
2022-08-30T06:35:56.701Z,26.28
2022-08-30T06:38:26.606Z,26.16
2022-08-30T06:40:54.165Z,26.16
2022-08-30T06:43:21.574Z,26.29
2022-08-30T06:45:49.193Z,26.18
2022-08-30T06:48:16.678Z,26.29
2022-08-30T06:50:44.897Z,26.26
2022-08-30T06:53:12.801Z,26.54
2022-08-30T06:55:40.435Z,26.63
2022-08-30T06:58:07.759Z,26.90
2022-08-30T07:00:35.460Z,26.96
2022-08-30T07:03:04.085Z,27.23
2022-08-30T07:05:32.815Z,27.46
2022-08-30T07:08:00.432Z,27.43
2022-08-30T07:10:27.763Z,27.50
2022-08-30T07:12:55.137Z,27.49
2022-08-30T07:15:23.014Z,27.81
2022-08-30T07:18:09.282Z,28.00
2022-08-30T07:20:40.359Z,28.10
2022-08-30T07:23:09.298Z,27.99
2022-08-30T07:25:38.030Z,28.04
2022-08-30T07:28:06.243Z,27.95
2022-08-30T07:30:34.491Z,28.03
2022-08-30T07:33:02.376Z,28.04
2022-08-30T07:35:29.764Z,27.85
2022-08-30T07:37:57.476Z,27.82
2022-08-30T07:40:25.497Z,27.85
2022-08-30T07:42:53.132Z,27.98
2022-08-30T07:45:20.818Z,28.17
2022-08-30T07:47:48.435Z,28.29
2022-08-30T07:50:15.872Z,28.11
2022-08-30T07:52:43.217Z,28.02
2022-08-30T07:55:10.868Z,28.06
2022-08-30T07:57:38.319Z,28.30
2022-08-30T08:00:06.465Z,28.26
2022-08-30T08:02:40.688Z,28.26
2022-08-30T08:05:12.805Z,28.53
2022-08-30T08:07:44.051Z,28.43
2022-08-30T08:10:11.759Z,28.63
2022-08-30T08:12:39.897Z,28.80
2022-08-30T08:15:08.895Z,28.54
2022-08-30T08:17:36.679Z,28.66
2022-08-30T08:20:04.745Z,28.66
2022-08-30T08:22:32.094Z,28.62
2022-08-30T08:24:59.804Z,28.62
2022-08-30T08:27:27.145Z,28.79
2022-08-30T08:29:54.805Z,28.67
2022-08-30T08:32:22.403Z,28.51
2022-08-30T08:34:49.729Z,28.62
2022-08-30T08:37:18.399Z,28.73
2022-08-30T08:39:48.588Z,28.80
2022-08-30T08:42:37.100Z,29.03
2022-08-30T08:45:14.268Z,28.69
2022-08-30T08:47:54.363Z,28.91
2022-08-30T08:50:23.288Z,28.81
2022-08-30T08:53:20.451Z,28.84
2022-08-30T08:55:52.788Z,28.90
2022-08-30T08:58:32.254Z,28.98
2022-08-30T09:01:00.154Z,29.00
2022-08-30T09:03:29.352Z,29.05
2022-08-30T09:05:58.194Z,29.34
2022-08-30T09:08:27.242Z,29.61
2022-08-30T09:11:04.801Z,29.69
2022-08-30T09:13:32.705Z,29.69
2022-08-30T09:16:00.760Z,29.85
2022-08-30T09:18:50.100Z,29.86
2022-08-30T09:21:25.295Z,29.91
2022-08-30T09:24:01.630Z,30.11
2022-08-30T09:26:36.850Z,29.93
2022-08-30T09:29:05.753Z,29.85
2022-08-30T09:31:48.781Z,29.76
2022-08-30T09:34:20.316Z,29.73
2022-08-30T09:36:52.280Z,29.61
2022-08-30T09:39:21.221Z,29.69
2022-08-30T09:41:52.924Z,29.84
2022-08-30T09:44:24.579Z,29.97
2022-08-30T09:46:54.409Z,30.00
2022-08-30T09:49:38.695Z,30.01
2022-08-30T09:52:11.910Z,30.17
2022-08-30T09:55:02.178Z,30.21
2022-08-30T09:57:43.006Z,30.00
2022-08-30T10:00:24.730Z,29.84
2022-08-30T10:03:36.321Z,29.77
2022-08-30T10:06:37.290Z,29.70
2022-08-30T10:09:11.038Z,29.77
2022-08-30T10:11:56.331Z,29.57
2022-08-30T10:14:33.182Z,29.63
2022-08-30T10:17:41.763Z,29.74
2022-08-30T10:20:16.819Z,29.84
2022-08-30T10:23:01.191Z,29.84
2022-08-30T10:25:45.312Z,30.26
2022-08-30T10:28:40.711Z,30.53
2022-08-30T10:31:15.078Z,30.67
2022-08-30T10:33:46.735Z,30.90
2022-08-30T10:36:15.361Z,31.08
2022-08-30T10:38:48.657Z,31.20
2022-08-30T10:41:19.171Z,31.22
2022-08-30T10:43:54.751Z,31.33
2022-08-30T10:46:29.535Z,31.40
2022-08-30T10:48:59.259Z,31.28
2022-08-30T10:51:33.479Z,31.38
2022-08-30T10:54:18.581Z,31.52
2022-08-30T10:56:51.343Z,31.56
2022-08-30T10:59:19.184Z,31.66
2022-08-30T11:02:17.989Z,31.69
2022-08-30T11:05:06.899Z,31.78
2022-08-30T11:07:49.266Z,31.53
2022-08-30T11:10:43.220Z,31.61
2022-08-30T11:13:26.441Z,31.84
2022-08-30T11:15:58.433Z,31.76
2022-08-30T11:18:26.626Z,31.84
2022-08-30T11:20:56.404Z,31.90
2022-08-30T11:23:29.105Z,32.05
2022-08-30T11:26:06.337Z,31.98
2022-08-30T11:28:38.409Z,31.81
2022-08-30T11:31:07.641Z,31.67
2022-08-30T11:34:01.287Z,31.86
2022-08-30T11:36:28.946Z,32.04
2022-08-30T11:39:09.399Z,32.06
2022-08-30T11:41:43.861Z,32.26
2022-08-30T11:44:27.612Z,32.31
2022-08-30T11:47:01.032Z,32.48
2022-08-30T11:49:40.247Z,32.54
2022-08-30T11:52:28.866Z,32.42
2022-08-30T11:55:22.757Z,32.18
2022-08-30T11:57:59.542Z,32.02
2022-08-30T12:00:42.046Z,32.24
2022-08-30T12:03:16.027Z,32.12
2022-08-30T12:05:44.236Z,32.17
2022-08-30T12:08:20.751Z,32.37
2022-08-30T12:10:51.712Z,32.24
2022-08-30T12:13:38.113Z,32.41
2022-08-30T12:16:16.312Z,32.47
2022-08-30T12:19:00.179Z,32.55
2022-08-30T12:21:43.601Z,32.68
2022-08-30T12:24:40.010Z,32.65
2022-08-30T12:27:32.615Z,32.60
2022-08-30T12:30:05.831Z,32.59
2022-08-30T12:32:33.747Z,32.65
2022-08-30T12:35:03.904Z,32.60
2022-08-30T12:37:37.445Z,32.66
2022-08-30T12:40:11.290Z,32.60
2022-08-30T12:42:53.789Z,32.58
2022-08-30T12:45:24.817Z,32.51
2022-08-30T12:48:01.935Z,32.55
2022-08-30T12:50:35.501Z,32.52
2022-08-30T12:53:13.550Z,32.34
2022-08-30T12:56:00.850Z,32.29
2022-08-30T12:58:38.944Z,32.19
2022-08-30T13:01:28.195Z,32.00
2022-08-30T13:04:00.894Z,31.93
2022-08-30T13:06:48.721Z,31.63
2022-08-30T13:09:39.884Z,31.53
2022-08-30T13:12:22.742Z,31.60
2022-08-30T13:14:52.398Z,31.72
2022-08-30T13:17:21.449Z,31.85
2022-08-30T13:20:20.570Z,31.85
2022-08-30T13:23:09.589Z,31.93
2022-08-30T13:25:38.456Z,31.87
2022-08-30T13:28:07.384Z,31.93
2022-08-30T13:30:34.764Z,32.09
2022-08-30T13:33:02.611Z,32.13
2022-08-30T13:35:31.409Z,32.16
2022-08-30T13:38:01.323Z,32.30
2022-08-30T13:40:28.692Z,32.24
2022-08-30T13:42:58.563Z,32.10
2022-08-30T13:45:41.953Z,32.19
2022-08-30T13:48:11.329Z,32.21
2022-08-30T13:50:39.581Z,32.20
2022-08-30T13:53:09.219Z,32.08
2022-08-30T13:55:38.311Z,32.12
2022-08-30T13:58:05.693Z,32.22
2022-08-30T14:00:37.844Z,32.07
2022-08-30T14:03:05.893Z,32.17
2022-08-30T14:06:04.722Z,32.11
2022-08-30T14:08:49.830Z,32.12
2022-08-30T14:11:21.214Z,32.13
2022-08-30T14:16:43.131Z,32.20
2022-08-30T14:19:12.440Z,32.32
2022-08-30T14:21:39.835Z,32.39
2022-08-30T14:24:07.439Z,32.51
2022-08-30T14:26:48.392Z,32.55
2022-08-30T14:29:18.979Z,32.61
2022-08-30T14:31:48.600Z,32.61
2022-08-30T14:34:16.705Z,32.78
2022-08-30T14:36:45.613Z,32.74
2022-08-30T14:39:17.996Z,32.78
2022-08-30T14:41:55.591Z,32.63
2022-08-30T14:44:24.669Z,32.28
2022-08-30T14:46:52.678Z,32.50
2022-08-30T14:49:20.740Z,32.43
2022-08-30T14:51:49.440Z,32.48
2022-08-30T14:54:19.547Z,32.13
2022-08-30T14:56:47.433Z,31.96
2022-08-30T14:59:15.332Z,31.94
2022-08-30T15:01:45.225Z,31.82
2022-08-30T15:04:14.289Z,31.66
2022-08-30T15:06:44.283Z,31.59
2022-08-30T15:09:14.803Z,31.54
2022-08-30T15:11:47.055Z,31.56
2022-08-30T15:14:16.292Z,31.36
2022-08-30T15:16:44.325Z,31.10
2022-08-30T15:19:12.595Z,31.07
2022-08-30T15:21:42.899Z,30.93
2022-08-30T15:24:15.027Z,30.88
2022-08-30T15:26:44.114Z,30.71
2022-08-30T15:29:13.516Z,30.86
2022-08-30T15:31:41.904Z,30.84
2022-08-30T15:34:11.100Z,30.78
2022-08-30T15:36:39.025Z,30.73
2022-08-30T15:39:07.206Z,30.66
2022-08-30T15:41:37.787Z,30.65
2022-08-30T15:44:07.706Z,30.61
2022-08-30T15:46:41.685Z,30.65
2022-08-30T15:49:23.323Z,30.61
2022-08-30T15:51:54.325Z,30.57
2022-08-30T15:54:23.617Z,30.53
2022-08-30T15:56:58.801Z,30.57
2022-08-30T15:59:28.305Z,30.54
2022-08-30T16:01:56.118Z,30.49
2022-08-30T16:04:25.701Z,30.49
2022-08-30T16:06:53.211Z,30.42
2022-08-30T16:09:21.697Z,30.34
2022-08-30T16:11:49.342Z,30.29
2022-08-30T16:14:16.779Z,30.32
2022-08-30T16:16:46.207Z,30.25
2022-08-30T16:19:13.903Z,30.28
2022-08-30T16:21:41.985Z,30.17
2022-08-30T16:24:10.399Z,30.20
2022-08-30T16:26:38.462Z,30.19
2022-08-30T16:29:07.365Z,30.13
2022-08-30T16:31:37.007Z,30.01
2022-08-30T16:34:05.059Z,29.97
2022-08-30T16:36:33.212Z,29.94
2022-08-30T16:39:00.911Z,29.86
2022-08-30T16:41:28.774Z,29.74
2022-08-30T16:43:56.432Z,29.74
2022-08-30T16:46:27.236Z,29.72
2022-08-30T16:48:58.915Z,29.66
2022-08-30T16:51:27.944Z,29.52
2022-08-30T16:53:58.106Z,29.48
2022-08-30T16:56:27.226Z,29.55
2022-08-30T16:59:01.091Z,29.41
2022-08-30T17:01:31.773Z,29.44
2022-08-30T17:03:59.740Z,29.36
2022-08-30T17:06:27.203Z,29.36
2022-08-30T17:08:56.332Z,29.42
2022-08-30T17:11:24.577Z,29.39
2022-08-30T17:13:52.519Z,29.35
2022-08-30T17:16:22.574Z,29.27
2022-08-30T17:19:00.894Z,29.30
2022-08-30T17:21:29.366Z,29.21
2022-08-30T17:24:01.835Z,29.22
2022-08-30T17:26:31.938Z,29.21
2022-08-30T17:28:59.366Z,29.23
2022-08-30T17:31:30.629Z,29.16
2022-08-30T17:34:03.570Z,29.10
2022-08-30T17:36:35.176Z,29.00
2022-08-30T17:39:09.380Z,28.90
2022-08-30T17:44:32.744Z,28.78
2022-08-30T17:47:00.547Z,28.70
2022-08-30T17:49:29.595Z,28.55
2022-08-30T17:51:58.535Z,28.53
2022-08-30T17:54:27.609Z,28.48
2022-08-30T17:56:55.537Z,28.41
2022-08-30T17:59:25.614Z,28.33
2022-08-30T18:01:54.525Z,28.24
2022-08-30T18:04:24.844Z,28.18
2022-08-30T18:06:53.323Z,28.12
2022-08-30T18:09:21.046Z,28.01
2022-08-30T18:11:48.750Z,27.93
2022-08-30T18:14:16.464Z,27.88
2022-08-30T18:16:49.821Z,27.78
2022-08-30T18:19:23.893Z,27.67
2022-08-30T18:21:52.023Z,27.58
2022-08-30T18:24:19.503Z,27.53
2022-08-30T18:26:47.140Z,27.42
2022-08-30T18:29:14.802Z,27.35
2022-08-30T18:31:53.643Z,27.31
2022-08-30T18:34:20.997Z,27.21
2022-08-30T18:36:49.158Z,27.16
2022-08-30T18:39:16.786Z,27.11
2022-08-30T18:41:44.263Z,27.04
2022-08-30T18:44:27.330Z,27.06
2022-08-30T18:46:57.231Z,26.98
2022-08-30T18:49:26.220Z,26.94
2022-08-30T18:51:53.632Z,26.89
2022-08-30T18:54:21.240Z,26.87
2022-08-30T18:56:48.964Z,26.85
2022-08-30T18:59:17.264Z,26.81
2022-08-30T19:01:46.562Z,26.73
2022-08-30T19:04:29.490Z,26.72
2022-08-30T19:07:07.624Z,26.68
2022-08-30T19:09:35.805Z,26.61
2022-08-30T19:12:05.173Z,26.58
2022-08-30T19:14:36.869Z,26.53
2022-08-30T19:19:52.607Z,26.51
2022-08-30T19:22:22.174Z,26.48
2022-08-30T19:24:51.367Z,26.40
2022-08-30T19:27:23.721Z,26.31
2022-08-30T19:30:11.099Z,26.23
2022-08-30T19:32:38.599Z,26.17
2022-08-30T19:35:07.039Z,26.10
2022-08-30T19:37:35.046Z,26.00
2022-08-30T19:40:05.188Z,25.94
2022-08-30T19:42:32.870Z,25.92
2022-08-30T19:45:00.348Z,25.93
2022-08-30T19:47:27.751Z,25.89
2022-08-30T19:49:55.362Z,25.77
2022-08-30T19:52:23.101Z,25.81
2022-08-30T19:54:50.547Z,25.79
2022-08-30T19:57:18.168Z,25.73
2022-08-30T19:59:45.641Z,25.76
2022-08-30T20:02:13.717Z,25.70
2022-08-30T20:04:41.468Z,25.72
2022-08-30T20:07:10.286Z,25.75
2022-08-30T20:09:38.033Z,25.74
2022-08-30T20:12:05.751Z,25.74
2022-08-30T20:14:33.111Z,25.66
2022-08-30T20:17:02.338Z,25.64
2022-08-30T20:19:30.460Z,25.65
2022-08-30T20:22:07.094Z,25.64
2022-08-30T20:24:24.179Z,28.80
2022-08-30T20:24:32.330Z,26.47
2022-08-30T20:27:08.958Z,25.46
2022-08-30T20:29:37.861Z,25.40
2022-08-30T20:32:05.634Z,25.42
2022-08-30T20:34:33.640Z,25.37
2022-08-30T20:37:01.244Z,25.38
2022-08-30T20:39:28.606Z,25.31
2022-08-30T20:41:56.002Z,25.31
2022-08-30T20:44:23.888Z,25.29
2022-08-30T20:46:51.217Z,25.22
2022-08-30T20:49:20.284Z,25.19
2022-08-30T20:51:52.821Z,25.18
2022-08-30T20:54:21.800Z,25.20
2022-08-30T20:56:50.188Z,25.09
2022-08-30T20:59:17.795Z,25.02
2022-08-30T21:01:45.151Z,24.89
2022-08-30T21:04:13.249Z,24.85
2022-08-30T21:06:40.577Z,24.82
2022-08-30T21:09:08.719Z,24.81
2022-08-30T21:11:37.546Z,24.82
2022-08-30T21:14:05.223Z,24.80
2022-08-30T21:16:32.596Z,24.75
2022-08-30T21:19:00.443Z,24.89
2022-08-30T21:21:30.307Z,24.83
2022-08-30T21:24:00.776Z,24.81
2022-08-30T21:26:28.608Z,24.75
2022-08-30T21:28:56.015Z,24.69
2022-08-30T21:31:26.238Z,24.72
2022-08-30T21:33:54.785Z,24.61
2022-08-30T21:36:42.120Z,24.49
2022-08-30T21:39:10.523Z,24.57
2022-08-30T21:41:38.823Z,24.52
2022-08-30T21:44:09.522Z,24.62
2022-08-30T21:46:37.494Z,24.52
2022-08-30T21:49:07.358Z,24.47
2022-08-30T21:51:37.975Z,24.50
2022-08-30T21:54:08.539Z,24.42
2022-08-30T21:56:40.538Z,24.55
2022-08-30T21:59:08.662Z,24.41
2022-08-30T22:01:37.703Z,24.39
2022-08-30T22:04:07.501Z,24.40
2022-08-30T22:06:36.631Z,24.27
2022-08-30T22:09:08.937Z,24.37
2022-08-30T22:11:37.355Z,24.36
2022-08-30T22:14:05.834Z,24.31
2022-08-30T22:16:33.930Z,24.25
2022-08-30T22:19:02.041Z,24.10
2022-08-30T22:21:31.539Z,24.10
2022-08-30T22:23:59.028Z,24.09
2022-08-30T22:26:27.056Z,24.11
2022-08-30T22:28:54.740Z,23.99
2022-08-30T22:31:23.026Z,24.03
2022-08-30T22:33:52.120Z,24.00
2022-08-30T22:36:32.944Z,23.94
2022-08-30T22:39:02.025Z,23.92
2022-08-30T22:41:32.710Z,23.89
2022-08-30T22:44:00.086Z,23.80
2022-08-30T22:46:33.613Z,23.70
2022-08-30T22:49:04.260Z,23.76
2022-08-30T22:51:32.227Z,23.76
2022-08-30T22:54:00.794Z,23.75
2022-08-30T22:56:28.679Z,23.70
2022-08-30T22:58:56.875Z,23.68
2022-08-30T23:01:37.061Z,23.72
2022-08-30T23:04:06.875Z,23.62
2022-08-30T23:06:34.691Z,23.63
2022-08-30T23:09:02.469Z,23.62
2022-08-30T23:11:31.820Z,23.66
2022-08-30T23:14:02.264Z,23.68
2022-08-30T23:16:30.039Z,23.64
2022-08-30T23:18:57.448Z,23.75
2022-08-30T23:21:27.567Z,23.63
2022-08-30T23:24:14.706Z,23.71
2022-08-30T23:27:01.658Z,23.78
2022-08-30T23:29:49.908Z,23.50
2022-08-30T23:32:36.343Z,23.60
2022-08-30T23:35:29.017Z,23.54
2022-08-30T23:38:17.889Z,23.59
2022-08-30T23:41:04.226Z,23.46
2022-08-30T23:43:50.120Z,23.45
2022-08-30T23:46:36.282Z,23.45
2022-08-30T23:49:22.731Z,23.56
2022-08-30T23:52:08.815Z,23.52
2022-08-30T23:54:57.153Z,23.53
2022-08-30T23:57:44.978Z,23.52
